FAAB/ALJ METAR and TAF weather

Enter ICAO airport designator
Station Type Date Time Source
FAAB METAR 2016/04/03 12:11 UTC NOAA

FAAB 031211Z AUTO 21014KT //// // ////// 28/12 Q1012


Station Type Date Time Source
FAAB Decoded METAR 2016/04/03 12:11 UTC NOAA

Alexander Bay, South Africa (FAAB) 28-34S 016-32E 0M
Apr 03, 2016 - 08:11 AM EDT / 2016.04.03 1211 UTC
Wind: from the SSW (210 degrees) at 16 MPH (14 KT):0
Temperature: 82 F (28 C)
Dew Point: 53 F (12 C)
Relative Humidity: 37%
Pressure (altimeter): 29.88 in. Hg (1012 hPa)
ob: FAAB 031211Z AUTO 21014KT //// // ////// 28/12 Q1012
cycle: 12

Station Type Date Time Source
FAAB TAF 2017/07/06 00:54 UTC NOAA

TAF FAAB 062130Z 0700/0806 27012KT 9999 BKN030 SCT080
BECMG 0702/0705 14010KT 8000 -RA/BR BKN030 BKN 080
BECMG0710/0713 9000 -RA BKN025 BKN070


Example: see airport list